KEQY

Charlotte-Monroe Executive Airport

Monroe, North Carolina, USA
METAR KEQY 230453Z AUTO 00000KT 10SM CLR 07/04 A3023 RMK AO2 SLP250 T00720044 401780017
Observed Flight Rules
Oct-23 @ 04:53 UTC (40 minutes ago) Visual Flight Rules
Visibility Clouds
10 miles
  • Clear skies
Temperatures Readings
Current 7°C / 45°F
Dewpoint 4°C / 39°F
Humidity 81%
Altimeter 30.23" Hg
Pressure 1025 hPa
Elevation 212
METAR KEQY 230453Z AUTO 00000KT 10SM CLR 07/04 A3023 RMK AO2 SLP250 T00720044 401780017
Observed Flight Rules
Oct-23 @ 04:53 UTC
(40 minutes ago)
VFR
Clouds
  • Clear skies
Temperature Dewpoint
7°C / 45°F 4°C / 39°F
Humidity Altimeter Pressure
81% 30.23" Hg 1025 hPa